createdAt,value
2023-04-20T00:02:03.088Z,102146.59
2023-04-20T00:04:31.542Z,102147.53
2023-04-20T00:07:00.878Z,102155.72
2023-04-20T00:09:28.864Z,102158.41
2023-04-20T00:11:56.783Z,102154.03
2023-04-20T00:14:24.695Z,102159.47
2023-04-20T00:16:52.654Z,102154.22
2023-04-20T00:19:21.074Z,102155.25
2023-04-20T00:22:01.073Z,102142.00
2023-04-20T00:24:30.416Z,102146.56
2023-04-20T00:26:58.272Z,102146.63
2023-04-20T00:29:26.158Z,102145.88
2023-04-20T00:31:54.041Z,102157.47
2023-04-20T00:34:21.945Z,102145.94
2023-04-20T00:36:49.827Z,102138.84
2023-04-20T00:39:17.935Z,102138.94
2023-04-20T00:41:47.359Z,102138.19
2023-04-20T00:44:15.215Z,102148.00
2023-04-20T00:46:43.152Z,102138.34
2023-04-20T00:49:11.079Z,102129.66
2023-04-20T00:51:38.956Z,102142.06
2023-04-20T00:54:07.218Z,102127.16
2023-04-20T00:56:35.115Z,102132.44
2023-04-20T00:59:04.584Z,102124.56
2023-04-20T01:01:32.646Z,102080.81
2023-04-20T01:04:00.654Z,102132.72
2023-04-20T01:06:28.920Z,102134.56
2023-04-20T01:08:57.188Z,102135.50
2023-04-20T01:11:25.087Z,102122.25
2023-04-20T01:13:53.159Z,102129.41
2023-04-20T01:16:23.177Z,102139.22
2023-04-20T01:18:51.757Z,102126.91
2023-04-20T01:21:21.429Z,102129.63
2023-04-20T01:23:50.816Z,102143.88
2023-04-20T01:26:19.489Z,102139.44
2023-04-20T01:28:47.425Z,102129.88
2023-04-20T01:31:15.322Z,102139.59
2023-04-20T01:33:43.252Z,102145.81
2023-04-20T01:36:11.443Z,102139.72
2023-04-20T01:38:39.348Z,102134.41
2023-04-20T01:41:09.426Z,102137.16
2023-04-20T01:43:37.480Z,102144.38
2023-04-20T01:46:06.110Z,102126.75
2023-04-20T01:48:34.082Z,102126.69
2023-04-20T01:51:01.963Z,102135.63
2023-04-20T01:53:29.899Z,102135.72
2023-04-20T01:55:57.819Z,102135.72
2023-04-20T01:58:27.088Z,102143.69
2023-04-20T02:00:54.986Z,102137.53
2023-04-20T02:03:23.110Z,102131.44
2023-04-20T02:05:51.071Z,102140.34
2023-04-20T02:08:19.035Z,102140.41
2023-04-20T02:10:46.942Z,102134.25
2023-04-20T02:13:15.052Z,102127.22
2023-04-20T02:15:44.290Z,102093.94
2023-04-20T02:18:12.212Z,102122.00
2023-04-20T02:20:40.230Z,102128.19
2023-04-20T02:23:08.182Z,102121.09
2023-04-20T02:25:36.098Z,102101.69
2023-04-20T02:28:04.013Z,102105.25
2023-04-20T02:30:31.898Z,102099.97
2023-04-20T02:33:01.496Z,102103.63
2023-04-20T02:35:29.396Z,102103.69
2023-04-20T02:37:57.254Z,102117.00
2023-04-20T02:40:25.191Z,102115.31
2023-04-20T02:42:53.069Z,102112.75
2023-04-20T02:45:21.296Z,102117.22
2023-04-20T02:47:49.154Z,102127.84
2023-04-20T02:50:18.470Z,102135.88
2023-04-20T02:52:46.342Z,102128.78
2023-04-20T02:55:14.215Z,102129.78
2023-04-20T02:57:42.644Z,102128.09
2023-04-20T03:00:13.338Z,102123.72
2023-04-20T03:02:41.281Z,102134.38
2023-04-20T03:05:10.071Z,102128.22
2023-04-20T03:07:39.324Z,102131.81
2023-04-20T03:10:08.549Z,102125.66
2023-04-20T03:12:36.518Z,102129.28
2023-04-20T03:15:06.286Z,102129.38
2023-04-20T03:17:34.232Z,102132.19
2023-04-20T03:20:02.438Z,102133.19
2023-04-20T03:22:30.335Z,102139.44
2023-04-20T03:24:59.877Z,102132.50
2023-04-20T03:27:27.734Z,102130.72
2023-04-20T03:29:55.739Z,102141.44
2023-04-20T03:32:23.707Z,102128.25
2023-04-20T03:34:51.912Z,102125.59
2023-04-20T03:37:19.781Z,102074.72
2023-04-20T03:39:47.621Z,102127.44
2023-04-20T03:42:16.921Z,102116.03
2023-04-20T03:44:44.788Z,102110.69
2023-04-20T03:47:12.762Z,102112.56
2023-04-20T03:49:40.678Z,102112.59
2023-04-20T03:52:09.232Z,102106.44
2023-04-20T03:54:38.511Z,102116.25
2023-04-20T03:57:06.378Z,102117.16
2023-04-20T03:59:35.852Z,102111.06
2023-04-20T04:02:05.890Z,102107.63
2023-04-20T04:04:33.992Z,102107.63
2023-04-20T04:07:02.116Z,102102.38
2023-04-20T04:09:30.103Z,102109.53
2023-04-20T04:11:58.797Z,102112.25
2023-04-20T04:14:26.924Z,102109.63
2023-04-20T04:16:56.301Z,102106.97
2023-04-20T04:19:24.213Z,102109.69
2023-04-20T04:21:52.153Z,102116.75
2023-04-20T04:24:20.003Z,102120.31
2023-04-20T04:26:48.694Z,102122.13
2023-04-20T04:29:16.686Z,102120.34
2023-04-20T04:31:44.769Z,102105.34
2023-04-20T04:34:14.134Z,102121.22
2023-04-20T04:36:42.069Z,102109.69
2023-04-20T04:39:09.928Z,102113.22
2023-04-20T04:41:37.874Z,102122.13
2023-04-20T04:44:06.158Z,102127.47
2023-04-20T04:46:34.073Z,102135.47
2023-04-20T04:49:02.922Z,102135.47
2023-04-20T04:51:33.338Z,102133.69
2023-04-20T04:54:01.338Z,102132.78
2023-04-20T04:56:29.613Z,102127.47
2023-04-20T04:58:57.577Z,102120.38
2023-04-20T05:01:25.943Z,102121.31
2023-04-20T05:03:54.106Z,102121.34
2023-04-20T05:06:22.221Z,102128.41
2023-04-20T05:08:51.621Z,102132.88
2023-04-20T05:11:19.703Z,102126.72
2023-04-20T05:13:48.554Z,102117.09
2023-04-20T05:16:19.503Z,102117.91
2023-04-20T05:18:47.477Z,102114.34
2023-04-20T05:21:21.429Z,102104.66
2023-04-20T05:23:49.405Z,102080.97
2023-04-20T05:26:18.947Z,102115.09
2023-04-20T05:28:46.955Z,102112.38
2023-04-20T05:31:14.851Z,102114.13
2023-04-20T05:33:42.760Z,102106.13
2023-04-20T05:36:11.456Z,102110.50
2023-04-20T05:38:39.587Z,102104.22
2023-04-20T05:41:07.668Z,102105.81
2023-04-20T05:43:36.939Z,102101.34
2023-04-20T05:46:05.431Z,102117.28
2023-04-20T05:48:33.437Z,102071.59
2023-04-20T05:51:01.420Z,102111.84
2023-04-20T05:53:29.334Z,102104.06
2023-04-20T05:55:57.201Z,102125.13
2023-04-20T05:58:25.327Z,102116.22
2023-04-20T06:00:54.724Z,102131.06
2023-04-20T06:03:22.772Z,102122.91
2023-04-20T06:05:50.858Z,102129.69
2023-04-20T06:08:19.447Z,102113.69
2023-04-20T06:10:47.327Z,102106.63
2023-04-20T06:13:15.220Z,102113.63
2023-04-20T06:15:43.581Z,102125.16
2023-04-20T06:18:13.226Z,102123.41
2023-04-20T06:20:41.690Z,102063.03
2023-04-20T06:23:10.031Z,102135.81
2023-04-20T06:25:37.965Z,102137.53
2023-04-20T06:28:06.564Z,102132.13
2023-04-20T06:30:34.786Z,102129.41
2023-04-20T06:33:03.074Z,102128.41
2023-04-20T06:35:32.618Z,102129.22
2023-04-20T06:38:02.521Z,102137.09
2023-04-20T06:40:30.525Z,102142.25
2023-04-20T06:42:58.412Z,102137.72
2023-04-20T06:45:26.449Z,102138.63
2023-04-20T06:47:54.589Z,102150.78
2023-04-20T06:50:22.713Z,102146.25
2023-04-20T06:52:52.193Z,102146.16
2023-04-20T06:55:23.514Z,102124.06
2023-04-20T06:57:51.407Z,102152.97
2023-04-20T07:00:28.451Z,102152.97
2023-04-20T07:02:56.748Z,102150.88
2023-04-20T07:05:24.940Z,102155.97
2023-04-20T07:07:54.261Z,102153.03
2023-04-20T07:10:22.347Z,102158.06
2023-04-20T07:12:50.414Z,102155.06
2023-04-20T07:15:18.518Z,102153.97
2023-04-20T07:17:46.394Z,102158.13
2023-04-20T07:20:14.383Z,102155.16
2023-04-20T07:22:43.225Z,102150.44
2023-04-20T07:25:12.770Z,102147.63
2023-04-20T07:27:41.622Z,102158.06
2023-04-20T07:30:10.731Z,102157.03
2023-04-20T07:32:39.597Z,102146.28
2023-04-20T07:35:08.454Z,102155.75
2023-04-20T07:37:36.915Z,102161.75
2023-04-20T07:40:06.880Z,102153.66
2023-04-20T07:42:37.310Z,102164.06
2023-04-20T07:45:06.261Z,102153.34
2023-04-20T07:47:34.797Z,102163.03
2023-04-20T07:50:03.193Z,102151.31
2023-04-20T07:52:31.184Z,102156.47
2023-04-20T07:54:59.668Z,102157.16
2023-04-20T07:57:27.778Z,102150.84
2023-04-20T07:59:57.080Z,102158.56
2023-04-20T08:02:25.150Z,102167.97
2023-04-20T08:04:53.573Z,102162.63
2023-04-20T08:07:21.754Z,102161.66
2023-04-20T08:09:49.615Z,102145.78
2023-04-20T08:12:17.482Z,102156.03
2023-04-20T08:14:45.546Z,102157.41
2023-04-20T08:17:14.873Z,102145.56
2023-04-20T08:19:44.654Z,102146.09
2023-04-20T08:22:13.942Z,102136.72
2023-04-20T08:24:41.851Z,102140.06
2023-04-20T08:27:10.033Z,102133.75
2023-04-20T08:29:37.952Z,102137.69
2023-04-20T08:32:09.034Z,102143.72
2023-04-20T08:34:38.544Z,102127.53
2023-04-20T08:37:06.828Z,102141.50
2023-04-20T08:39:34.892Z,102144.84
2023-04-20T08:42:03.341Z,102134.81
2023-04-20T08:44:31.432Z,102140.56
2023-04-20T08:47:01.259Z,102134.81
2023-04-20T08:49:29.655Z,102140.72
2023-04-20T08:51:58.930Z,102130.66
2023-04-20T08:54:27.219Z,102136.72
2023-04-20T08:56:55.500Z,102130.41
2023-04-20T08:59:23.453Z,102137.81
2023-04-20T09:01:51.540Z,102133.28
2023-04-20T09:04:20.638Z,102144.78
2023-04-20T09:06:50.513Z,102146.59
2023-04-20T09:09:19.971Z,102146.59
2023-04-20T09:11:48.148Z,102120.34
2023-04-20T09:14:18.305Z,102145.78
2023-04-20T09:16:52.978Z,102129.97
2023-04-20T09:19:24.913Z,102146.53
2023-04-20T09:21:54.943Z,102142.78
2023-04-20T09:24:24.791Z,102136.34
2023-04-20T09:26:52.748Z,102141.34
2023-04-20T09:29:21.187Z,102149.84
2023-04-20T09:31:49.426Z,102137.97
2023-04-20T09:34:17.930Z,102157.25
2023-04-20T09:36:50.412Z,102142.84
2023-04-20T09:39:19.053Z,102133.06
2023-04-20T09:41:48.336Z,102135.47
2023-04-20T09:44:17.213Z,102133.69
2023-04-20T09:46:46.719Z,102129.94
2023-04-20T09:49:15.346Z,102125.97
2023-04-20T09:51:45.225Z,102128.44
2023-04-20T09:54:13.407Z,102138.63
2023-04-20T09:56:41.299Z,102131.09
2023-04-20T09:59:10.634Z,102141.53
2023-04-20T10:01:38.710Z,102132.34
2023-04-20T10:04:09.036Z,102128.38
2023-04-20T10:06:37.497Z,102116.66
2023-04-20T10:09:06.477Z,102127.66
2023-04-20T10:11:45.125Z,102121.44
2023-04-20T10:14:25.525Z,102139.66
2023-04-20T10:17:01.114Z,102137.84
2023-04-20T10:19:38.751Z,102135.69
2023-04-20T10:22:07.052Z,102106.88
2023-04-20T10:24:35.874Z,102123.88
2023-04-20T10:27:04.168Z,102124.69
2023-04-20T10:29:36.522Z,102121.59
2023-04-20T10:32:06.090Z,102113.09
2023-04-20T10:34:38.003Z,102119.94
2023-04-20T10:37:12.464Z,102105.34
2023-04-20T10:39:46.211Z,102118.81
2023-04-20T10:42:15.992Z,102119.19
2023-04-20T10:44:52.777Z,102113.16
2023-04-20T10:47:28.053Z,102115.31
2023-04-20T10:49:56.540Z,102103.38
2023-04-20T10:52:34.550Z,102102.84
2023-04-20T10:55:02.454Z,102107.59
2023-04-20T10:57:30.378Z,102098.53
2023-04-20T10:59:59.895Z,102097.63
2023-04-20T11:02:28.239Z,102095.47
2023-04-20T11:05:01.016Z,102094.00
2023-04-20T11:07:29.026Z,102099.81
2023-04-20T11:09:57.897Z,102098.88
2023-04-20T11:12:25.818Z,102089.78
2023-04-20T11:14:54.334Z,102089.13
2023-04-20T11:17:32.649Z,102086.06
2023-04-20T11:20:09.366Z,102074.09
2023-04-20T11:22:37.306Z,102081.53
2023-04-20T11:25:06.929Z,102075.75
2023-04-20T11:27:38.054Z,102083.03
2023-04-20T11:30:08.053Z,102071.84
2023-04-20T11:32:38.274Z,102065.44
2023-04-20T11:35:08.743Z,102069.97
2023-04-20T11:37:47.067Z,102068.66
2023-04-20T11:40:15.171Z,102059.00
2023-04-20T11:42:43.186Z,102068.22
2023-04-20T11:45:12.239Z,102031.47
2023-04-20T11:47:41.953Z,102056.19
2023-04-20T11:50:10.467Z,102049.72
2023-04-20T11:52:38.570Z,102039.94
2023-04-20T11:55:08.077Z,102044.53
2023-04-20T11:57:36.271Z,102051.38
2023-04-20T12:00:04.907Z,102052.34
2023-04-20T12:02:32.975Z,102053.63
2023-04-20T12:05:03.257Z,102047.38
2023-04-20T12:07:31.230Z,102051.06
2023-04-20T12:09:59.126Z,102039.22
2023-04-20T12:12:27.032Z,102034.63
2023-04-20T12:14:54.996Z,102033.09
2023-04-20T12:17:23.053Z,102033.50
2023-04-20T12:19:51.113Z,102036.41
2023-04-20T12:22:20.428Z,102027.94
2023-04-20T12:24:48.395Z,102040.47
2023-04-20T12:27:16.862Z,102034.47
2023-04-20T12:29:44.710Z,102033.41
2023-04-20T12:32:12.630Z,102021.13
2023-04-20T12:34:40.580Z,102040.66
2023-04-20T12:37:08.484Z,102031.03
2023-04-20T12:39:37.719Z,102026.03
2023-04-20T12:42:05.797Z,102020.63
2023-04-20T12:44:35.927Z,102017.84
2023-04-20T12:47:04.045Z,102015.84
2023-04-20T12:49:33.627Z,102015.72
2023-04-20T12:52:01.838Z,102020.03
2023-04-20T12:54:29.743Z,102022.16
2023-04-20T12:56:59.006Z,102031.91
2023-04-20T12:59:27.406Z,102032.03
2023-04-20T13:01:55.958Z,102028.94
2023-04-20T13:04:24.212Z,102023.50
2023-04-20T13:06:52.558Z,102026.13
2023-04-20T13:09:20.910Z,102025.25
2023-04-20T13:11:48.840Z,102022.06
2023-04-20T13:14:18.502Z,102017.63
2023-04-20T13:16:46.795Z,102019.31
2023-04-20T13:19:14.712Z,102011.16
2023-04-20T13:21:42.621Z,102012.88
2023-04-20T13:24:10.493Z,102008.03
2023-04-20T13:26:38.407Z,102012.69
2023-04-20T13:29:06.366Z,102007.00
2023-04-20T13:31:37.109Z,102004.00
2023-04-20T13:34:05.205Z,102006.91
2023-04-20T13:36:33.287Z,101999.81
2023-04-20T13:39:03.663Z,101993.63
2023-04-20T13:41:31.784Z,101995.81
2023-04-20T13:44:01.500Z,101987.13
2023-04-20T13:46:29.576Z,101981.09
2023-04-20T13:48:58.894Z,101977.50
2023-04-20T13:51:27.172Z,101985.41
2023-04-20T13:53:55.090Z,101979.56
2023-04-20T13:56:22.977Z,101979.06
2023-04-20T13:58:51.249Z,101972.22
2023-04-20T14:01:19.690Z,101966.69
2023-04-20T14:03:47.681Z,101972.25
2023-04-20T14:06:17.110Z,101966.63
2023-04-20T14:08:45.095Z,101960.66
2023-04-20T14:11:13.082Z,101962.53
2023-04-20T14:13:41.257Z,101948.75
2023-04-20T14:16:11.099Z,101944.16
2023-04-20T14:18:39.541Z,101952.09
2023-04-20T14:21:07.619Z,101946.94
2023-04-20T14:23:36.990Z,101942.19
2023-04-20T14:26:04.988Z,101944.84
2023-04-20T14:28:33.481Z,101943.41
2023-04-20T14:31:02.368Z,101934.91
2023-04-20T14:33:30.505Z,101947.16
2023-04-20T14:35:58.464Z,101946.97
2023-04-20T14:38:26.393Z,101946.53
2023-04-20T14:40:55.635Z,101941.25
2023-04-20T14:43:23.989Z,101929.63
2023-04-20T14:45:51.918Z,101922.56
2023-04-20T14:48:19.810Z,101921.16
2023-04-20T14:50:47.683Z,101909.63
2023-04-20T14:53:15.500Z,101921.41
2023-04-20T14:55:43.487Z,101911.06
2023-04-20T14:58:12.797Z,101904.16
2023-04-20T15:00:40.672Z,101915.25
2023-04-20T15:03:08.755Z,101910.91
2023-04-20T15:05:37.201Z,101910.94
2023-04-20T15:08:05.535Z,101886.22
2023-04-20T15:10:34.083Z,101898.88
2023-04-20T15:13:02.629Z,101892.13
2023-04-20T15:15:46.886Z,101898.59
2023-04-20T15:18:15.953Z,101885.72
2023-04-20T15:20:43.882Z,101885.13
2023-04-20T15:23:11.794Z,101878.63
2023-04-20T15:25:39.804Z,101879.06
2023-04-20T15:28:07.722Z,101880.91
2023-04-20T15:30:37.039Z,101871.56
2023-04-20T15:33:05.555Z,101876.88
2023-04-20T15:35:33.775Z,101879.94
2023-04-20T15:38:01.741Z,101873.50
2023-04-20T15:40:30.434Z,101867.00
2023-04-20T15:42:58.597Z,101858.22
2023-04-20T15:45:26.507Z,101854.59
2023-04-20T15:47:56.086Z,101854.00
2023-04-20T15:50:24.189Z,101844.59
2023-04-20T15:52:53.040Z,101849.53
2023-04-20T15:55:21.171Z,101840.31
2023-04-20T15:57:49.284Z,101837.28
2023-04-20T16:00:18.077Z,101838.91
2023-04-20T16:02:46.371Z,101846.84
2023-04-20T16:05:16.109Z,101833.75
2023-04-20T16:07:44.175Z,101841.69
2023-04-20T16:10:12.475Z,101826.94
2023-04-20T16:12:40.474Z,101842.81
2023-04-20T16:15:09.677Z,101837.03
2023-04-20T16:17:37.811Z,101810.94
2023-04-20T16:20:06.645Z,101834.91
2023-04-20T16:22:36.345Z,101830.50
2023-04-20T16:25:04.388Z,101837.50
2023-04-20T16:27:32.916Z,101843.69
2023-04-20T16:30:00.870Z,101833.13
2023-04-20T16:32:29.220Z,101838.03
2023-04-20T16:34:57.155Z,101826.69
2023-04-20T16:37:25.450Z,101837.31
2023-04-20T16:39:54.800Z,101841.44
2023-04-20T16:42:22.658Z,101840.03
2023-04-20T16:44:50.632Z,101829.69
2023-04-20T16:47:18.492Z,101805.13
2023-04-20T16:49:46.378Z,101822.94
2023-04-20T16:52:14.600Z,101815.63
2023-04-20T16:54:42.737Z,101824.53
2023-04-20T16:57:12.051Z,101824.69
2023-04-20T16:59:40.014Z,101825.25
2023-04-20T17:02:08.103Z,101821.22
2023-04-20T17:04:37.260Z,101829.41
2023-04-20T17:07:05.533Z,101824.81
2023-04-20T17:09:33.825Z,101826.13
2023-04-20T17:12:02.258Z,101831.66
2023-04-20T17:14:32.303Z,101827.34
2023-04-20T17:17:00.444Z,101822.28
2023-04-20T17:19:30.775Z,101824.50
2023-04-20T17:21:59.279Z,101815.56
2023-04-20T17:24:27.214Z,101820.66
2023-04-20T17:26:55.070Z,101829.63
2023-04-20T17:29:23.003Z,101822.88
2023-04-20T17:31:52.817Z,101805.53
2023-04-20T17:34:20.917Z,101814.66
2023-04-20T17:36:48.995Z,101809.16
2023-04-20T17:39:16.884Z,101820.38
2023-04-20T17:41:45.174Z,101820.56
2023-04-20T17:44:13.305Z,101802.63
2023-04-20T17:46:41.517Z,101817.94
2023-04-20T17:49:10.831Z,101812.41
2023-04-20T17:51:38.755Z,101817.59
2023-04-20T17:54:07.779Z,101811.16
2023-04-20T17:56:35.766Z,101811.03
2023-04-20T17:59:03.719Z,101807.16
2023-04-20T18:01:34.499Z,101813.91
2023-04-20T18:04:02.667Z,101808.16
2023-04-20T18:06:33.709Z,101811.34
2023-04-20T18:09:04.118Z,101803.38
2023-04-20T18:11:32.482Z,101804.00
2023-04-20T18:14:01.140Z,101799.47
2023-04-20T18:16:29.081Z,101812.06
2023-04-20T18:18:57.128Z,101787.69
2023-04-20T18:21:25.043Z,101793.63
2023-04-20T18:23:55.530Z,101798.69
2023-04-20T18:26:24.716Z,101794.97
2023-04-20T18:28:52.720Z,101797.34
2023-04-20T18:31:20.826Z,101788.06
2023-04-20T18:33:48.958Z,101785.84
2023-04-20T18:36:17.160Z,101792.84
2023-04-20T18:38:45.076Z,101781.00
2023-04-20T18:41:14.939Z,101775.19
2023-04-20T18:43:44.798Z,101773.00
2023-04-20T18:46:12.762Z,101769.91
2023-04-20T18:48:41.067Z,101761.53
2023-04-20T18:51:08.991Z,101766.47
2023-04-20T18:53:36.937Z,101761.69
2023-04-20T18:56:05.374Z,101766.72
2023-04-20T18:58:34.627Z,101769.00
2023-04-20T19:01:03.632Z,101766.81
2023-04-20T19:03:31.944Z,101767.22
2023-04-20T19:05:59.930Z,101768.59
2023-04-20T19:08:28.082Z,101768.28
2023-04-20T19:10:57.376Z,101765.22
2023-04-20T19:13:25.350Z,101764.66
2023-04-20T19:15:58.130Z,101761.56
2023-04-20T19:18:26.733Z,101761.25
2023-04-20T19:20:55.208Z,101763.44
2023-04-20T19:23:23.223Z,101758.63
2023-04-20T19:25:51.133Z,101759.19
2023-04-20T19:28:19.016Z,101771.47
2023-04-20T19:30:46.939Z,101770.47
2023-04-20T19:33:16.388Z,101772.78
2023-04-20T19:35:48.239Z,101777.63
2023-04-20T19:38:16.342Z,101777.28
2023-04-20T19:40:44.187Z,101774.28
2023-04-20T19:43:12.066Z,101772.78
2023-04-20T19:45:40.060Z,101764.66
2023-04-20T19:48:08.023Z,101784.34
2023-04-20T19:50:37.318Z,101783.75
2023-04-20T19:53:05.257Z,101774.34
2023-04-20T19:55:33.141Z,101775.53
2023-04-20T19:58:01.039Z,101783.06
2023-04-20T20:00:29.006Z,101774.34
2023-04-20T20:02:57.008Z,101770.81
2023-04-20T20:05:25.064Z,101765.56
2023-04-20T20:07:54.345Z,101763.78
2023-04-20T20:10:22.352Z,101762.97
2023-04-20T20:12:50.238Z,101763.16
2023-04-20T20:15:18.187Z,101757.94
2023-04-20T20:17:47.641Z,101766.22
2023-04-20T20:20:16.383Z,101767.38
2023-04-20T20:22:48.320Z,101764.28
2023-04-20T20:25:18.140Z,101762.00
2023-04-20T20:27:46.210Z,101768.66
2023-04-20T20:30:14.990Z,101765.53
2023-04-20T20:32:42.907Z,101756.22
2023-04-20T20:35:13.055Z,101753.84
2023-04-20T20:37:40.985Z,101758.56
2023-04-20T20:40:10.694Z,101754.19
2023-04-20T20:42:40.032Z,101746.41
2023-04-20T20:45:10.877Z,101750.13
2023-04-20T20:47:38.837Z,101741.38
2023-04-20T20:50:07.855Z,101741.69
2023-04-20T20:52:35.739Z,101746.28
2023-04-20T20:55:04.137Z,101738.53
2023-04-20T20:57:31.991Z,101738.66
2023-04-20T21:00:01.652Z,101736.03
2023-04-20T21:02:29.663Z,101730.16
2023-04-20T21:04:57.702Z,101734.53
2023-04-20T21:07:25.658Z,101728.38
2023-04-20T21:09:53.535Z,101723.13
2023-04-20T21:12:21.467Z,101721.19
2023-04-20T21:14:51.324Z,101725.53
2023-04-20T21:17:20.647Z,101717.34
2023-04-20T21:19:48.521Z,101725.34
2023-04-20T21:22:16.419Z,101719.09
2023-04-20T21:24:44.336Z,101717.50
2023-04-20T21:27:12.230Z,101722.56
2023-04-20T21:29:40.111Z,101718.22
2023-04-20T21:32:09.672Z,101723.44
2023-04-20T21:34:38.943Z,101716.28
2023-04-20T21:37:07.089Z,101707.72
2023-04-20T21:39:35.015Z,101721.81
2023-04-20T21:42:03.223Z,101697.66
2023-04-20T21:44:31.136Z,101725.53
2023-04-20T21:47:02.315Z,101716.03
2023-04-20T21:49:30.872Z,101721.44
2023-04-20T21:52:00.123Z,101721.53
2023-04-20T21:54:27.989Z,101720.88
2023-04-20T21:56:55.859Z,101726.41
2023-04-20T21:59:23.755Z,101731.84
2023-04-20T22:01:51.760Z,101735.50
2023-04-20T22:04:20.370Z,101727.63
2023-04-20T22:06:48.926Z,101739.16
2023-04-20T22:09:18.489Z,101727.66
2023-04-20T22:11:47.787Z,101733.94
2023-04-20T22:14:15.735Z,101721.50
2023-04-20T22:16:43.682Z,101721.59
2023-04-20T22:19:11.606Z,101725.22
2023-04-20T22:21:39.512Z,101722.63
2023-04-20T22:24:07.838Z,101723.69
2023-04-20T22:26:37.097Z,101732.78
2023-04-20T22:29:05.024Z,101734.72
2023-04-20T22:31:32.903Z,101720.66
2023-04-20T22:34:00.803Z,101728.72
2023-04-20T22:36:29.028Z,101707.81
2023-04-20T22:38:56.963Z,101735.88
2023-04-20T22:41:24.897Z,101721.69
2023-04-20T22:43:54.137Z,101729.56
2023-04-20T22:46:22.101Z,101728.84
2023-04-20T22:48:50.148Z,101735.03
2023-04-20T22:51:18.276Z,101740.47
2023-04-20T22:53:46.231Z,101734.16
2023-04-20T22:56:14.162Z,101732.31
2023-04-20T22:58:42.079Z,101740.31
2023-04-20T23:01:11.328Z,101737.72
2023-04-20T23:03:39.374Z,101738.44
2023-04-20T23:06:07.811Z,101747.34
2023-04-20T23:08:35.749Z,101732.88
2023-04-20T23:11:04.696Z,101743.44
2023-04-20T23:13:33.277Z,101739.56
2023-04-20T23:16:01.209Z,101740.50
2023-04-20T23:18:30.493Z,101741.16
2023-04-20T23:20:58.407Z,101748.28
2023-04-20T23:23:26.394Z,101739.38
2023-04-20T23:25:54.333Z,101712.13
2023-04-20T23:28:22.204Z,101735.81
2023-04-20T23:30:50.091Z,101725.22
2023-04-20T23:33:17.957Z,101733.31
2023-04-20T23:35:47.217Z,101731.63
2023-04-20T23:38:15.333Z,101715.25
2023-04-20T23:40:43.228Z,101730.53
2023-04-20T23:43:11.170Z,101739.66
2023-04-20T23:45:39.077Z,101713.75
2023-04-20T23:48:07.541Z,101742.50
2023-04-20T23:50:37.026Z,101743.47
2023-04-20T23:53:07.496Z,101746.31
2023-04-20T23:55:35.409Z,101747.34
2023-04-20T23:58:03.275Z,101742.13
